createdAt,value
2016-12-15T09:36:00.444Z,16.94
2016-12-15T09:36:28.233Z,16.95
2016-12-15T09:36:56.143Z,16.84
2016-12-15T09:37:23.827Z,16.86
2016-12-15T09:37:51.513Z,16.83
2016-12-15T09:38:19.228Z,16.74
2016-12-15T09:38:46.936Z,16.74
2016-12-15T09:39:14.656Z,16.8
2016-12-15T09:39:42.447Z,16.73
2016-12-15T09:40:10.152Z,16.76
2016-12-15T09:40:37.926Z,16.72
2016-12-15T09:41:05.653Z,16.8
2016-12-15T09:41:33.386Z,16.73
2016-12-15T09:42:01.173Z,16.72
2016-12-15T09:42:28.889Z,16.68
2016-12-15T09:42:56.579Z,16.73
2016-12-15T09:43:24.416Z,16.66
2016-12-15T09:43:52.240Z,16.69
2016-12-15T09:44:20.018Z,16.58
2016-12-15T09:44:47.803Z,16.68
2016-12-15T09:45:15.520Z,16.62
2016-12-15T09:45:43.218Z,16.66
2016-12-15T09:46:10.920Z,16.64
2016-12-15T09:46:38.625Z,16.57
2016-12-15T09:47:06.332Z,16.58
2016-12-15T09:47:34.032Z,16.64
2016-12-15T09:48:01.873Z,16.59
2016-12-15T09:48:29.542Z,16.66
2016-12-15T09:48:57.239Z,16.64
2016-12-15T09:49:24.961Z,16.66
2016-12-15T09:49:52.677Z,16.69
2016-12-15T09:50:20.408Z,16.65
2016-12-15T09:50:48.134Z,16.72
2016-12-15T09:51:15.844Z,16.69
2016-12-15T09:51:43.532Z,16.66
2016-12-15T09:52:11.462Z,16.74
2016-12-15T09:52:39.416Z,16.79
2016-12-15T09:53:07.169Z,16.76
2016-12-15T09:53:34.960Z,16.73
2016-12-15T09:54:02.649Z,16.76
2016-12-15T09:54:30.363Z,16.74
2016-12-15T09:54:58.347Z,16.74
2016-12-15T09:55:26.064Z,16.74
2016-12-15T09:55:53.756Z,16.76
2016-12-15T09:56:21.628Z,16.79
2016-12-15T09:56:49.395Z,16.8
2016-12-15T09:57:17.070Z,16.82
2016-12-15T09:57:44.812Z,16.82
2016-12-15T09:58:12.646Z,16.77
2016-12-15T09:58:40.431Z,16.86
2016-12-15T09:59:08.318Z,16.94
2016-12-15T09:59:36.029Z,16.89
2016-12-15T10:00:03.911Z,16.94
2016-12-15T10:00:31.596Z,16.98
2016-12-15T10:00:59.286Z,16.97
2016-12-15T10:01:27.025Z,17.04
2016-12-15T10:01:54.873Z,17.09
2016-12-15T10:02:22.689Z,17.12
2016-12-15T10:02:50.410Z,17.17
2016-12-15T10:03:18.182Z,17.14
2016-12-15T10:03:46.001Z,17.16
2016-12-15T10:04:13.829Z,17.13
2016-12-15T10:04:41.543Z,17.14
2016-12-15T10:05:09.276Z,17.16
2016-12-15T10:05:36.960Z,17.14
2016-12-15T10:06:04.690Z,17.22
2016-12-15T10:06:32.599Z,17.23
2016-12-15T10:07:00.317Z,17.23
2016-12-15T10:07:28.139Z,17.22
2016-12-15T10:07:55.974Z,17.32
2016-12-15T10:08:23.861Z,17.32
2016-12-15T10:08:51.601Z,17.35
2016-12-15T10:09:19.297Z,17.35
2016-12-15T10:09:47.182Z,17.38
2016-12-15T10:10:14.885Z,17.35
2016-12-15T10:10:42.603Z,17.5
2016-12-15T10:11:10.324Z,17.46
2016-12-15T10:11:38.028Z,17.44
2016-12-15T10:12:05.934Z,17.5
2016-12-15T10:12:33.683Z,17.39
2016-12-15T10:13:01.407Z,17.44
2016-12-15T10:13:29.112Z,17.57
2016-12-15T10:13:56.941Z,17.5
2016-12-15T10:14:24.727Z,17.5
2016-12-15T10:14:52.462Z,17.53
2016-12-15T10:15:20.160Z,17.59
2016-12-15T10:15:47.989Z,17.56
2016-12-15T10:16:15.770Z,17.46
2016-12-15T10:16:43.464Z,17.47
2016-12-15T10:17:11.285Z,17.44
2016-12-15T10:17:38.972Z,17.41
2016-12-15T10:18:06.799Z,17.44
2016-12-15T10:18:34.619Z,17.47
2016-12-15T10:19:02.370Z,17.41
2016-12-15T10:19:30.114Z,17.44
2016-12-15T10:19:57.803Z,17.41
2016-12-15T10:20:25.786Z,17.49
2016-12-15T10:20:53.581Z,17.41
2016-12-15T10:21:21.309Z,17.53
2016-12-15T10:21:49.135Z,17.5
2016-12-15T10:22:16.847Z,17.56
2016-12-15T10:22:44.545Z,17.52
2016-12-15T10:23:12.235Z,17.6
2016-12-15T10:23:39.939Z,17.42
2016-12-15T10:24:07.732Z,17.47
2016-12-15T10:24:35.522Z,17.49
2016-12-15T10:25:03.226Z,17.47
2016-12-15T10:25:30.980Z,17.42
2016-12-15T10:25:58.784Z,17.47
2016-12-15T10:26:26.572Z,17.46
2016-12-15T10:26:54.259Z,17.49
2016-12-15T10:27:21.997Z,17.52
2016-12-15T10:27:49.777Z,17.46
2016-12-15T10:28:17.499Z,17.47
2016-12-15T10:28:45.249Z,17.44
2016-12-15T10:29:12.988Z,17.41
2016-12-15T10:29:40.754Z,17.42
2016-12-15T10:30:08.462Z,17.46
2016-12-15T10:30:36.293Z,17.49
2016-12-15T10:31:04.072Z,17.47
2016-12-15T10:31:31.786Z,17.54
2016-12-15T10:31:59.686Z,17.46
2016-12-15T10:32:27.406Z,17.42
2016-12-15T10:32:55.116Z,17.54
2016-12-15T10:33:22.807Z,17.56
2016-12-15T10:33:50.493Z,17.57
2016-12-15T10:34:18.306Z,17.54
2016-12-15T10:34:46.085Z,17.59
2016-12-15T10:35:13.909Z,17.59
2016-12-15T10:35:41.711Z,17.54
2016-12-15T10:36:09.406Z,17.63
2016-12-15T10:36:37.102Z,17.54
2016-12-15T10:37:04.784Z,17.69
2016-12-15T10:37:32.498Z,17.65
2016-12-15T10:38:00.351Z,17.65
2016-12-15T10:38:28.075Z,17.63
2016-12-15T10:38:55.865Z,17.63
2016-12-15T10:39:23.845Z,17.71
2016-12-15T10:39:51.526Z,17.65
2016-12-15T10:40:19.342Z,17.72
2016-12-15T10:40:47.055Z,17.73
2016-12-15T10:41:14.757Z,17.76
2016-12-15T10:41:42.441Z,17.72
2016-12-15T10:42:10.221Z,17.71
2016-12-15T10:42:37.938Z,17.68
2016-12-15T10:43:05.664Z,17.79
2016-12-15T10:43:33.764Z,17.69
2016-12-15T10:44:01.458Z,17.73
2016-12-15T10:44:29.171Z,17.73
2016-12-15T10:44:56.912Z,17.73
2016-12-15T10:45:24.751Z,17.68
2016-12-15T10:45:52.555Z,17.66
2016-12-15T10:46:20.313Z,17.68
2016-12-15T10:46:48.003Z,17.59
2016-12-15T10:47:15.685Z,17.6
2016-12-15T10:47:43.813Z,17.6
2016-12-15T10:48:11.596Z,17.59
2016-12-15T10:48:39.400Z,17.56
2016-12-15T10:49:07.304Z,17.56
2016-12-15T10:49:35.002Z,17.54
2016-12-15T10:50:02.691Z,17.57
2016-12-15T10:50:30.649Z,17.59
2016-12-15T10:50:58.539Z,17.65
2016-12-15T10:51:26.248Z,17.63
2016-12-15T10:51:54.030Z,17.63
2016-12-15T10:52:21.753Z,17.57
2016-12-15T10:52:49.533Z,17.69
2016-12-15T10:53:17.354Z,17.72
2016-12-15T10:53:45.175Z,17.6
2016-12-15T10:54:12.891Z,17.65
2016-12-15T10:54:40.629Z,17.76
2016-12-15T10:55:08.426Z,17.75
2016-12-15T10:55:36.255Z,17.71
2016-12-15T10:56:04.150Z,17.75
2016-12-15T10:56:31.860Z,17.6
2016-12-15T10:56:59.561Z,17.63
2016-12-15T10:57:27.344Z,17.65
2016-12-15T10:57:55.048Z,17.73
2016-12-15T10:58:22.834Z,17.76
2016-12-15T10:58:50.554Z,17.71
2016-12-15T10:59:18.436Z,17.71
2016-12-15T10:59:46.133Z,17.68
2016-12-15T11:00:13.856Z,17.76
2016-12-15T11:00:41.839Z,17.76
2016-12-15T11:01:09.729Z,17.76
2016-12-15T11:01:37.612Z,17.71
2016-12-15T11:02:05.428Z,17.76
2016-12-15T11:02:33.141Z,17.75
2016-12-15T11:03:01.090Z,17.69
2016-12-15T11:03:29.007Z,17.71
2016-12-15T11:03:56.805Z,17.71
2016-12-15T11:04:24.614Z,17.75
2016-12-15T11:04:52.315Z,17.78
2016-12-15T11:05:20.034Z,17.8
2016-12-15T11:05:47.826Z,17.82
2016-12-15T11:06:15.715Z,17.84
2016-12-15T11:06:43.422Z,17.82
2016-12-15T11:07:11.318Z,17.76
2016-12-15T11:07:39.101Z,17.84
2016-12-15T11:08:06.920Z,17.86
2016-12-15T11:08:34.631Z,17.9
2016-12-15T11:09:02.443Z,17.88
2016-12-15T11:09:30.155Z,17.88
2016-12-15T11:09:57.856Z,17.88
2016-12-15T11:10:25.654Z,17.87
2016-12-15T11:10:53.425Z,17.87
2016-12-15T11:11:21.212Z,17.88
2016-12-15T11:11:49.011Z,17.91
2016-12-15T11:12:16.722Z,17.9
2016-12-15T11:12:44.454Z,17.95
2016-12-15T11:13:12.159Z,17.94
2016-12-15T11:13:39.924Z,17.93
2016-12-15T11:14:07.721Z,17.93
2016-12-15T11:14:35.542Z,17.94
2016-12-15T11:15:03.281Z,17.87
2016-12-15T11:15:31.440Z,17.94
2016-12-15T11:15:59.272Z,17.94
2016-12-15T11:16:26.978Z,17.86
2016-12-15T11:16:54.697Z,17.97
2016-12-15T11:17:22.491Z,17.9
2016-12-15T11:17:50.208Z,17.95
2016-12-15T11:18:17.985Z,17.87
2016-12-15T11:18:45.784Z,17.97
2016-12-15T11:19:13.463Z,17.95
2016-12-15T11:19:41.268Z,17.93
2016-12-15T11:20:08.998Z,18
2016-12-15T11:20:36.945Z,17.95
2016-12-15T11:21:05.039Z,18.03
2016-12-15T11:21:32.766Z,18.03
2016-12-15T11:22:00.570Z,18.11
2016-12-15T11:22:28.366Z,18.11
2016-12-15T11:22:56.179Z,18.08
2016-12-15T11:23:24.103Z,18.11
2016-12-15T11:23:51.822Z,18.06
2016-12-15T11:24:19.717Z,18.09
2016-12-15T11:24:47.509Z,18.12
2016-12-15T11:25:15.245Z,18.11
2016-12-15T11:25:42.946Z,18.09
2016-12-15T11:26:10.756Z,18.13
2016-12-15T11:26:38.659Z,18.13
2016-12-15T11:27:06.474Z,18.03
2016-12-15T11:27:34.162Z,18.05
2016-12-15T11:28:01.867Z,18.11
2016-12-15T11:28:29.666Z,18.11
2016-12-15T11:28:57.453Z,18.05
2016-12-15T11:29:25.272Z,18.15
2016-12-15T11:29:53.062Z,18.06
2016-12-15T11:30:20.944Z,18.21
2016-12-15T11:30:48.827Z,18.09
2016-12-15T11:31:16.669Z,18.08
2016-12-15T11:31:44.577Z,18.11
2016-12-15T11:32:12.377Z,18.16
2016-12-15T11:32:40.096Z,18.16
2016-12-15T11:33:07.857Z,18.11
2016-12-15T11:33:35.584Z,18.09
2016-12-15T11:34:03.481Z,17.98
2016-12-15T11:34:31.246Z,17.94
2016-12-15T11:34:59.070Z,17.86
2016-12-15T11:35:26.884Z,17.93
2016-12-15T11:35:54.567Z,17.88
2016-12-15T11:36:22.417Z,17.84
2016-12-15T11:36:50.176Z,17.76
2016-12-15T11:37:17.933Z,17.68
2016-12-15T11:37:45.627Z,17.73
2016-12-15T11:38:13.407Z,17.75
2016-12-15T11:38:41.380Z,17.63
2016-12-15T11:39:09.085Z,17.65
2016-12-15T11:39:36.769Z,17.63
2016-12-15T11:40:04.556Z,17.54
2016-12-15T11:40:32.269Z,17.57
2016-12-15T11:41:00.060Z,17.6
2016-12-15T11:41:27.968Z,17.57
2016-12-15T11:41:55.795Z,17.6
2016-12-15T11:42:23.521Z,17.49
2016-12-15T11:42:51.281Z,17.47
2016-12-15T11:43:19.067Z,17.49
2016-12-15T11:43:46.858Z,17.47
2016-12-15T11:44:14.577Z,17.44
2016-12-15T11:44:42.386Z,17.44
2016-12-15T11:45:10.183Z,17.44
2016-12-15T11:45:38.001Z,17.42
2016-12-15T11:46:06.017Z,17.49
2016-12-15T11:46:33.803Z,17.42
2016-12-15T11:47:01.522Z,17.59
2016-12-15T11:47:29.314Z,17.53
2016-12-15T11:47:57.234Z,17.59
2016-12-15T11:48:25.061Z,17.66
2016-12-15T11:48:52.822Z,17.6
2016-12-15T11:49:20.646Z,17.65
2016-12-15T11:49:48.364Z,17.72
2016-12-15T11:50:16.125Z,17.57
2016-12-15T11:50:44.008Z,17.63
2016-12-15T11:51:12.224Z,17.54
2016-12-15T11:51:39.932Z,17.63
2016-12-15T11:52:07.783Z,17.66
2016-12-15T11:52:35.493Z,17.56
2016-12-15T11:53:03.192Z,17.6
2016-12-15T11:53:30.904Z,17.72
2016-12-15T11:53:58.713Z,17.76
2016-12-15T11:54:26.425Z,17.65
2016-12-15T11:54:54.257Z,17.72
2016-12-15T11:55:21.979Z,17.82
2016-12-15T11:55:49.861Z,17.78
2016-12-15T11:56:17.794Z,17.86
2016-12-15T11:56:45.499Z,17.87
2016-12-15T11:57:13.210Z,17.78
2016-12-15T11:57:41.108Z,17.88
2016-12-15T11:58:08.893Z,17.9
2016-12-15T11:58:36.629Z,17.88
2016-12-15T11:59:04.519Z,17.9
2016-12-15T11:59:32.236Z,18
2016-12-15T11:59:59.946Z,18.05
2016-12-15T12:00:27.723Z,18.12
2016-12-15T12:00:55.550Z,18.13
2016-12-15T12:01:23.395Z,18.16
2016-12-15T12:01:51.141Z,18.21
2016-12-15T12:02:19.181Z,18.19
2016-12-15T12:02:46.877Z,18.24
2016-12-15T12:03:14.766Z,18.3
2016-12-15T12:03:42.583Z,18.39
2016-12-15T12:04:10.457Z,18.34
2016-12-15T12:04:38.160Z,18.45
2016-12-15T12:05:05.972Z,18.53
2016-12-15T12:05:33.800Z,18.52
2016-12-15T12:06:01.591Z,18.63
2016-12-15T12:06:29.476Z,18.53
2016-12-15T12:06:57.211Z,18.57
2016-12-15T12:07:24.956Z,18.58
2016-12-15T12:07:52.783Z,18.53
2016-12-15T12:08:20.702Z,18.49
2016-12-15T12:08:48.519Z,18.43
2016-12-15T12:09:16.232Z,18.43
2016-12-15T12:09:44.060Z,18.48
2016-12-15T12:10:11.846Z,18.52
2016-12-15T12:10:39.583Z,18.49
2016-12-15T12:11:07.276Z,18.6
2016-12-15T12:11:35.162Z,18.51
2016-12-15T12:12:02.881Z,18.52
2016-12-15T12:12:30.591Z,18.61
2016-12-15T12:12:58.467Z,18.55
2016-12-15T12:13:26.209Z,18.58
2016-12-15T12:13:54.108Z,18.6
2016-12-15T12:14:21.997Z,18.6
2016-12-15T12:14:49.707Z,18.57
2016-12-15T12:15:17.548Z,18.61
2016-12-15T12:15:45.337Z,18.49
2016-12-15T12:16:13.143Z,18.43
2016-12-15T12:16:40.856Z,18.41
2016-12-15T12:17:08.557Z,18.37
2016-12-15T12:17:36.233Z,18.37
2016-12-15T12:18:04.045Z,18.31
2016-12-15T12:18:31.857Z,18.49
2016-12-15T12:18:59.678Z,18.27
2016-12-15T12:19:27.381Z,18.31
2016-12-15T12:19:55.196Z,18.31
2016-12-15T12:20:23.016Z,18.21
2016-12-15T12:20:50.704Z,18.21
2016-12-15T12:21:18.595Z,18.24
2016-12-15T12:21:46.394Z,18.23
2016-12-15T12:22:14.090Z,18.12
2016-12-15T12:22:41.866Z,18.18
2016-12-15T12:23:09.562Z,18.28
2016-12-15T12:23:37.349Z,18.21
2016-12-15T12:24:05.138Z,18.26
2016-12-15T12:24:32.857Z,18.36
2016-12-15T12:25:00.699Z,18.26
2016-12-15T12:25:28.534Z,18.28
2016-12-15T12:25:56.315Z,18.31
2016-12-15T12:26:24.129Z,18.37
2016-12-15T12:26:51.918Z,18.41
2016-12-15T12:27:19.649Z,18.28
2016-12-15T12:28:02.129Z,18.43
2016-12-15T12:28:29.934Z,18.34
2016-12-15T12:28:57.646Z,18.41
